Terminal Aerodrome Forecast
Issued by NWS

Home | Current Version | Previous Version | Text Only | Print | Product List | Glossary On
Versions: 1 2 3 4 5 6 7 8 9 10 11 12 13 14 15 16 17
000
FTUS41 KBOX 220527
TAFFMH
TAF
KFMH 220527Z 2206/2306 26004KT 1/4SM FG OVC002
     FM221200 03004KT 1/2SM FG OVC003
     FM221500 04005KT 2SM BR OVC003
     FM221700 04006KT P6SM OVC003
     FM230300 06011G25KT P6SM OVC015
      AMD NOT SKED=

USA.gov is the U.S. government's official web portal to all federal, state and local government web resources and services.